Time;durP1;ratioP1;P1;durP2;ratioP2;P2;SDS_P1;SDS_P2;PMS_P1;PMS_P2;Temp;Humidity;BMP_temperature;BMP_pressure;BME280_temperature;BME280_humidity;BME280_pressure;Samples;Min_cycle;Max_cycle;Signal;HPM_P1;HPM_P2
2023/06/26 00:00:25;;;;;;;9.05;6.72;;;22.70;97.50;;;;;;5029889;28;20033;-70
2023/06/26 00:03:14;;;;;;;10.02;7.07;;;22.70;97.50;;;;;;5029973;28;20111;-69
2023/06/26 00:06:00;;;;;;;9.50;6.85;;;22.70;97.60;;;;;;5012576;28;20514;-69
2023/06/26 00:08:46;;;;;;;9.45;7.22;;;22.60;97.80;;;;;;5014882;28;20506;-69
2023/06/26 00:11:33;;;;;;;9.27;6.28;;;22.60;98.00;;;;;;5033750;28;20068;-69
2023/06/26 00:14:20;;;;;;;11.70;7.55;;;22.60;98.20;;;;;;5012003;28;20038;-69
2023/06/26 00:17:06;;;;;;;10.68;7.78;;;22.50;98.30;;;;;;5012641;28;20034;-69
2023/06/26 00:19:52;;;;;;;9.27;6.70;;;22.50;98.50;;;;;;5012674;28;20053;-69
2023/06/26 00:22:40;;;;;;;10.98;7.95;;;22.50;98.60;;;;;;5028469;28;20406;-69
2023/06/26 00:25:26;;;;;;;10.73;7.35;;;22.40;98.80;;;;;;5029820;28;20457;-69
2023/06/26 00:28:12;;;;;;;8.45;6.68;;;22.40;98.90;;;;;;5032771;28;20033;-69
2023/06/26 00:30:58;;;;;;;10.20;7.32;;;22.40;99.00;;;;;;5032315;28;20034;-69
2023/06/26 00:33:44;;;;;;;10.38;8.07;;;22.40;99.00;;;;;;5031308;28;20033;-69
2023/06/26 00:36:30;;;;;;;9.40;7.05;;;22.40;99.20;;;;;;5031474;28;20482;-69
2023/06/26 00:39:16;;;;;;;9.63;7.22;;;22.30;99.40;;;;;;5011991;28;20080;-70
2023/06/26 00:42:02;;;;;;;9.52;7.13;;;22.30;99.40;;;;;;5023450;28;20041;-70
2023/06/26 00:44:48;;;;;;;9.95;6.60;;;22.30;99.50;;;;;;5031755;28;20413;-70
2023/06/26 00:47:34;;;;;;;9.80;6.80;;;22.30;99.60;;;;;;5030317;28;20410;-70
2023/06/26 00:50:20;;;;;;;8.82;7.07;;;22.30;99.80;;;;;;5030666;28;20037;-73
2023/06/26 00:53:06;;;;;;;10.02;7.43;;;22.30;99.90;;;;;;5021322;28;20570;-67
2023/06/26 00:55:52;;;;;;;10.05;7.00;;;22.20;99.90;;;;;;5011852;28;20030;-67
2023/06/26 00:58:38;;;;;;;10.85;7.65;;;22.20;99.90;;;;;;5011660;28;20040;-67
2023/06/26 01:01:25;;;;;;;9.50;7.07;;;22.10;99.90;;;;;;5011473;28;20053;-67
2023/06/26 01:04:17;;;;;;;11.25;7.05;;;22.20;99.90;;;;;;5021312;28;20033;-67
2023/06/26 01:07:04;;;;;;;10.10;7.75;;;22.20;99.90;;;;;;5031930;28;20037;-67
2023/06/26 01:09:50;;;;;;;9.77;7.28;;;22.20;99.90;;;;;;5024151;28;20034;-67
2023/06/26 01:12:38;;;;;;;8.45;6.88;;;22.20;99.90;;;;;;5011306;28;20040;-67
2023/06/26 01:15:24;;;;;;;11.00;7.35;;;22.20;99.90;;;;;;5010649;28;20038;-67
2023/06/26 01:18:10;;;;;;;10.73;7.43;;;22.10;99.90;;;;;;5030003;28;20041;-68
2023/06/26 01:21:00;;;;;;;9.20;7.13;;;22.10;99.90;;;;;;5029808;28;20037;-67
2023/06/26 01:23:57;;;;;;;10.15;7.45;;;22.10;99.90;;;;;;5027739;28;20036;-67
2023/06/26 01:26:44;;;;;;;12.90;7.95;;;22.10;99.90;;;;;;5010949;28;20430;-67
2023/06/26 01:29:32;;;;;;;8.65;6.88;;;22.10;99.90;;;;;;5010044;28;20176;-67
2023/06/26 01:32:19;;;;;;;10.80;7.95;;;22.10;99.90;;;;;;5016367;28;20060;-67
2023/06/26 01:35:07;;;;;;;10.50;8.05;;;22.10;99.90;;;;;;5031628;28;20530;-67
2023/06/26 01:37:53;;;;;;;10.75;8.02;;;22.10;99.90;;;;;;5031025;28;20025;-67
2023/06/26 01:40:39;;;;;;;10.88;8.30;;;22.10;99.90;;;;;;5030164;28;20478;-67
2023/06/26 01:43:59;;;;;;;10.60;8.02;;;22.00;99.90;;;;;;5017433;28;20045;-67
2023/06/26 01:47:01;;;;;;;11.05;7.03;;;22.00;99.90;;;;;;5031104;28;20042;-67
2023/06/26 01:49:54;;;;;;;12.05;8.05;;;22.10;99.90;;;;;;5029893;28;20143;-67
2023/06/26 01:52:42;;;;;;;10.55;7.78;;;22.00;99.90;;;;;;5029405;28;20092;-67
2023/06/26 01:55:48;;;;;;;12.43;8.27;;;22.00;99.90;;;;;;5025586;28;20060;-67
2023/06/26 01:58:35;;;;;;;12.00;8.27;;;21.90;99.90;;;;;;5010138;28;20038;-67
2023/06/26 02:01:22;;;;;;;10.45;8.27;;;21.90;99.90;;;;;;5031270;28;20160;-67
2023/06/26 02:04:08;;;;;;;10.43;7.70;;;21.90;99.90;;;;;;5030153;28;20045;-67
2023/06/26 02:06:54;;;;;;;10.63;7.97;;;21.90;99.90;;;;;;5029107;28;20136;-67
2023/06/26 02:09:41;;;;;;;10.18;8.13;;;21.90;99.90;;;;;;5028895;28;20043;-67
2023/06/26 02:12:27;;;;;;;11.32;8.40;;;21.90;99.90;;;;;;5029277;28;20482;-67
2023/06/26 02:15:13;;;;;;;11.13;7.53;;;21.90;99.90;;;;;;5015014;28;20034;-67
2023/06/26 02:17:58;;;;;;;12.02;7.95;;;21.90;99.90;;;;;;5026267;28;20041;-67
2023/06/26 02:20:44;;;;;;;12.05;7.63;;;21.90;99.90;;;;;;5029963;28;20120;-67
2023/06/26 02:23:30;;;;;;;15.23;10.05;;;21.90;99.90;;;;;;5028545;28;20041;-66
2023/06/26 02:26:16;;;;;;;11.40;8.48;;;21.80;99.90;;;;;;5029771;28;20048;-67
2023/06/26 02:29:02;;;;;;;10.45;8.32;;;21.80;99.90;;;;;;5029255;28;20483;-67
2023/06/26 02:31:48;;;;;;;11.35;8.35;;;21.80;99.90;;;;;;5016307;28;20395;-66
2023/06/26 02:34:35;;;;;;;11.82;8.07;;;21.80;99.90;;;;;;5029275;28;20041;-67
2023/06/26 02:37:21;;;;;;;12.90;8.30;;;21.80;99.90;;;;;;5030064;28;20482;-72
2023/06/26 02:40:09;;;;;;;11.43;8.18;;;21.80;99.90;;;;;;5030312;28;20026;-72
2023/06/26 02:42:55;;;;;;;12.52;8.27;;;21.80;99.90;;;;;;5028925;28;20064;-72
2023/06/26 02:45:41;;;;;;;11.57;8.38;;;21.80;99.90;;;;;;5025076;28;20061;-72
2023/06/26 02:48:27;;;;;;;11.27;8.77;;;21.80;99.90;;;;;;5029572;28;20064;-73
2023/06/26 02:51:13;;;;;;;13.85;8.38;;;21.80;99.90;;;;;;5029812;28;20395;-73
2023/06/26 02:53:59;;;;;;;15.55;8.38;;;21.70;99.90;;;;;;5029199;28;20029;-73
2023/06/26 02:56:45;;;;;;;11.00;8.27;;;21.70;99.90;;;;;;5028650;28;20391;-73
2023/06/26 02:59:31;;;;;;;11.10;8.60;;;21.70;99.90;;;;;;5029158;28;20383;-72
2023/06/26 03:02:16;;;;;;;12.52;8.80;;;21.70;99.90;;;;;;5027503;28;20037;-73
2023/06/26 03:05:03;;;;;;;10.88;8.27;;;21.70;99.90;;;;;;5028766;28;20029;-73
2023/06/26 03:07:49;;;;;;;10.93;8.35;;;21.70;99.90;;;;;;5027291;28;20061;-73
2023/06/26 03:10:35;;;;;;;13.50;8.68;;;21.70;99.90;;;;;;5028972;28;20037;-73
2023/06/26 03:13:21;;;;;;;11.85;8.40;;;21.70;99.90;;;;;;5028352;28;20394;-73
2023/06/26 03:16:07;;;;;;;13.32;9.10;;;21.70;99.90;;;;;;5026916;28;20439;-73
2023/06/26 03:18:53;;;;;;;13.85;9.85;;;21.70;99.90;;;;;;5020234;28;20117;-73
2023/06/26 03:21:39;;;;;;;11.57;8.27;;;21.70;99.90;;;;;;5009814;28;20380;-73
2023/06/26 03:24:25;;;;;;;11.80;8.65;;;21.60;99.90;;;;;;5009270;28;20044;-73
2023/06/26 03:27:11;;;;;;;11.15;8.85;;;21.60;99.90;;;;;;5009324;28;20038;-73
2023/06/26 03:29:57;;;;;;;11.85;9.45;;;21.60;99.90;;;;;;5008725;28;20383;-73
2023/06/26 03:32:43;;;;;;;11.40;9.15;;;21.60;99.90;;;;;;5022018;28;20415;-73
2023/06/26 03:35:29;;;;;;;12.27;8.57;;;21.60;99.90;;;;;;5018027;28;20033;-73
2023/06/26 03:38:15;;;;;;;12.50;9.38;;;21.50;99.90;;;;;;5032802;28;20041;-73
2023/06/26 03:41:02;;;;;;;13.07;9.38;;;21.50;99.90;;;;;;5032902;28;20025;-73
2023/06/26 03:43:48;;;;;;;12.68;9.95;;;21.50;99.90;;;;;;5032373;28;20474;-73
2023/06/26 03:46:33;;;;;;;13.40;9.10;;;21.50;99.90;;;;;;5033382;28;20383;-73
2023/06/26 03:49:19;;;;;;;14.43;10.00;;;21.50;99.90;;;;;;5032375;28;20065;-73
2023/06/26 03:52:06;;;;;;;11.07;8.90;;;21.50;99.90;;;;;;5029772;28;20046;-68
2023/06/26 03:54:52;;;;;;;10.48;8.35;;;21.60;99.90;;;;;;5022245;28;20103;-73
2023/06/26 03:57:38;;;;;;;11.95;9.40;;;21.60;99.90;;;;;;5033063;28;20033;-73
2023/06/26 04:00:24;;;;;;;14.02;10.20;;;21.70;99.90;;;;;;5031324;28;20028;-71
2023/06/26 04:03:11;;;;;;;12.52;9.23;;;21.80;99.90;;;;;;5033046;28;20037;-73
2023/06/26 04:05:56;;;;;;;11.60;9.40;;;21.80;99.90;;;;;;5032168;28;20489;-69
2023/06/26 04:08:43;;;;;;;13.02;8.98;;;21.80;99.90;;;;;;5020638;28;20026;-68
2023/06/26 04:11:29;;;;;;;14.43;9.30;;;21.90;99.90;;;;;;5026411;28;20044;-69
2023/06/26 04:14:14;;;;;;;13.73;9.30;;;21.90;99.90;;;;;;5032453;28;20033;-69
2023/06/26 04:17:03;;;;;;;13.20;9.50;;;22.00;99.90;;;;;;5031969;28;20541;-69
2023/06/26 04:19:49;;;;;;;14.63;9.02;;;22.00;99.90;;;;;;5030795;28;20474;-69
2023/06/26 04:22:35;;;;;;;12.20;9.27;;;22.10;99.90;;;;;;5031724;28;20036;-70
2023/06/26 04:25:21;;;;;;;13.23;9.77;;;22.10;99.90;;;;;;5023978;28;20127;-70
2023/06/26 04:28:07;;;;;;;12.52;9.52;;;22.20;99.90;;;;;;5024121;28;20029;-68
2023/06/26 04:30:53;;;;;;;15.30;10.20;;;22.20;99.90;;;;;;5030489;28;20101;-68
2023/06/26 04:33:39;;;;;;;12.98;9.27;;;22.30;99.90;;;;;;5033618;28;20088;-68
2023/06/26 04:36:28;;;;;;;11.88;9.25;;;22.30;99.90;;;;;;5032691;28;20359;-68
2023/06/26 04:39:14;;;;;;;14.18;9.88;;;22.40;99.90;;;;;;5031730;28;20675;-68
2023/06/26 04:42:00;;;;;;;11.40;9.43;;;22.40;99.90;;;;;;5029890;28;20053;-68
2023/06/26 04:44:46;;;;;;;14.32;10.65;;;22.40;99.90;;;;;;5019643;28;20117;-68
2023/06/26 04:47:32;;;;;;;13.48;10.45;;;22.50;99.90;;;;;;5031384;28;20091;-68
2023/06/26 04:50:18;;;;;;;14.07;10.02;;;22.50;99.90;;;;;;5033265;28;20426;-68
2023/06/26 04:53:04;;;;;;;12.32;10.35;;;22.50;99.90;;;;;;5033970;28;20103;-68
2023/06/26 04:55:51;;;;;;;12.43;10.18;;;22.60;99.90;;;;;;5032242;28;20387;-68
2023/06/26 04:58:37;;;;;;;13.93;10.10;;;22.60;99.90;;;;;;5025310;28;20376;-68
2023/06/26 05:01:23;;;;;;;14.25;10.13;;;22.70;99.90;;;;;;5024316;28;20449;-68
2023/06/26 05:04:09;;;;;;;14.48;10.10;;;22.70;99.90;;;;;;5030079;28;20072;-68
2023/06/26 05:06:55;;;;;;;14.65;9.60;;;22.80;99.90;;;;;;5030915;28;20480;-68
2023/06/26 05:09:41;;;;;;;12.25;9.90;;;22.90;99.90;;;;;;5023195;28;20040;-68
2023/06/26 05:12:27;;;;;;;10.90;8.93;;;23.00;99.90;;;;;;5012728;28;20064;-68
2023/06/26 05:15:13;;;;;;;13.57;9.75;;;23.10;99.90;;;;;;5021789;28;20064;-68
2023/06/26 05:17:59;;;;;;;13.23;9.48;;;23.20;99.90;;;;;;5025485;28;20045;-68
2023/06/26 05:20:45;;;;;;;12.13;8.85;;;23.30;99.90;;;;;;5021606;28;20029;-69
2023/06/26 05:23:32;;;;;;;12.98;9.60;;;23.40;99.90;;;;;;5029181;28;20402;-69
2023/06/26 05:26:19;;;;;;;12.20;8.98;;;23.50;99.90;;;;;;5031461;28;20068;-69
2023/06/26 05:29:05;;;;;;;10.43;8.73;;;23.60;99.90;;;;;;5026293;28;20036;-69
2023/06/26 05:31:53;;;;;;;11.82;9.32;;;23.70;99.90;;;;;;5018310;28;20073;-69
2023/06/26 05:34:40;;;;;;;14.52;9.27;;;23.80;99.90;;;;;;5027730;28;20156;-69
2023/06/26 05:37:28;;;;;;;12.73;8.10;;;23.90;99.90;;;;;;5029115;28;20561;-70
2023/06/26 05:40:14;;;;;;;11.45;8.85;;;24.00;99.90;;;;;;5030662;28;20108;-69
2023/06/26 05:43:01;;;;;;;9.68;8.05;;;24.00;99.90;;;;;;5028905;28;20042;-69
2023/06/26 05:45:48;;;;;;;11.75;9.45;;;24.10;99.90;;;;;;5030303;28;20128;-69
2023/06/26 05:48:34;;;;;;;10.13;8.10;;;24.20;99.90;;;;;;5024094;28;20030;-69
2023/06/26 05:51:20;;;;;;;10.95;8.05;;;24.20;99.90;;;;;;5026082;28;20033;-69
2023/06/26 05:54:07;;;;;;;12.15;8.38;;;24.20;99.90;;;;;;5030185;28;20056;-69
2023/06/26 05:56:59;;;;;;;9.75;7.25;;;24.20;99.90;;;;;;5029755;28;20772;-69
2023/06/26 05:59:46;;;;;;;16.88;9.23;;;24.20;99.90;;;;;;5030760;28;20025;-69
2023/06/26 06:02:32;;;;;;;12.07;8.70;;;24.20;99.90;;;;;;5030435;28;20109;-69
2023/06/26 06:05:17;;;;;;;11.05;8.13;;;24.20;99.90;;;;;;5030605;28;20045;-70
2023/06/26 06:08:04;;;;;;;16.55;8.13;;;24.20;99.90;;;;;;5030139;28;20033;-70
2023/06/26 06:10:50;;;;;;;10.43;7.88;;;24.20;99.90;;;;;;5030491;28;20030;-69
2023/06/26 06:13:36;;;;;;;9.05;7.35;;;24.20;99.50;;;;;;5029114;28;20042;-69
2023/06/26 06:16:22;;;;;;;11.10;8.18;;;24.30;99.60;;;;;;5029264;28;20061;-69
2023/06/26 06:19:10;;;;;;;10.73;7.13;;;24.30;99.40;;;;;;5022652;28;20038;-69
2023/06/26 06:21:56;;;;;;;9.60;7.40;;;24.30;99.40;;;;;;5027012;28;20033;-69
2023/06/26 06:24:43;;;;;;;8.32;6.68;;;24.30;99.40;;;;;;5029657;28;20056;-69
2023/06/26 06:27:30;;;;;;;8.93;6.60;;;24.40;99.00;;;;;;5029681;28;20042;-69
2023/06/26 06:30:16;;;;;;;9.73;6.97;;;24.40;98.70;;;;;;5024982;28;20037;-69
2023/06/26 06:33:02;;;;;;;11.48;6.22;;;24.50;98.70;;;;;;5023904;28;20056;-69
2023/06/26 06:35:48;;;;;;;8.85;5.50;;;24.50;98.20;;;;;;5027565;28;20124;-69
2023/06/26 06:38:34;;;;;;;12.50;6.68;;;24.60;98.10;;;;;;5026352;28;20025;-69
2023/06/26 06:41:20;;;;;;;10.57;5.75;;;24.60;98.00;;;;;;5028554;28;20474;-69
2023/06/26 06:44:06;;;;;;;9.70;6.78;;;24.70;97.80;;;;;;5027205;28;20034;-70
2023/06/26 06:46:52;;;;;;;6.93;5.38;;;24.70;97.60;;;;;;5028792;28;20761;-72
2023/06/26 06:49:38;;;;;;;7.57;5.78;;;24.80;97.60;;;;;;5029995;28;20056;-68
2023/06/26 06:52:24;;;;;;;6.60;4.72;;;24.90;97.50;;;;;;5024605;28;20237;-69
2023/06/26 06:55:10;;;;;;;6.88;5.40;;;24.90;97.10;;;;;;5009493;28;20061;-73
2023/06/26 06:57:56;;;;;;;5.90;4.53;;;24.90;96.60;;;;;;5015723;28;20661;-71
2023/06/26 07:00:42;;;;;;;7.78;5.50;;;25.00;96.80;;;;;;5014608;28;20116;-69
2023/06/26 07:03:28;;;;;;;6.43;4.72;;;25.10;96.60;;;;;;5018906;28;20037;-70
2023/06/26 07:06:14;;;;;;;8.25;5.10;;;25.10;96.30;;;;;;5027673;28;20049;-73
2023/06/26 07:09:00;;;;;;;13.48;4.93;;;25.20;96.10;;;;;;5029036;28;20029;-67
2023/06/26 07:11:46;;;;;;;6.75;5.22;;;25.30;95.80;;;;;;5030117;28;20512;-73
2023/06/26 07:14:32;;;;;;;9.23;5.47;;;25.30;95.60;;;;;;5027711;28;20498;-72
2023/06/26 07:17:18;;;;;;;7.57;5.15;;;25.40;95.60;;;;;;5029759;28;20103;-72
2023/06/26 07:20:06;;;;;;;6.32;4.57;;;25.50;95.50;;;;;;5027936;28;20033;-72
2023/06/26 07:22:53;;;;;;;7.40;4.63;;;25.50;95.40;;;;;;5023042;28;20095;-72
2023/06/26 07:25:39;;;;;;;9.48;5.28;;;25.60;95.20;;;;;;5029062;28;20124;-68
2023/06/26 07:28:25;;;;;;;7.40;5.45;;;25.70;95.00;;;;;;5023944;28;20391;-68
2023/06/26 07:31:11;;;;;;;7.78;5.50;;;25.70;94.70;;;;;;5026524;28;20116;-69
2023/06/26 07:33:57;;;;;;;7.88;4.38;;;25.80;94.70;;;;;;5028026;28;20513;-68
2023/06/26 07:36:43;;;;;;;7.10;5.07;;;25.90;94.40;;;;;;5028946;28;20494;-69
2023/06/26 07:39:29;;;;;;;6.80;4.50;;;26.00;94.40;;;;;;5028610;28;20040;-69
2023/06/26 07:42:15;;;;;;;5.68;4.25;;;26.10;94.30;;;;;;5023743;28;20033;-65
2023/06/26 07:45:01;;;;;;;6.53;4.68;;;26.10;94.10;;;;;;5025959;28;20083;-66
2023/06/26 07:47:47;;;;;;;12.18;5.55;;;26.20;93.90;;;;;;5029590;28;20033;-66
2023/06/26 07:50:33;;;;;;;6.30;4.47;;;26.30;93.80;;;;;;5025435;28;20033;-67
2023/06/26 07:53:19;;;;;;;6.50;4.38;;;26.30;93.80;;;;;;5018162;28;20034;-69
2023/06/26 07:56:05;;;;;;;5.93;4.05;;;26.40;93.30;;;;;;5027624;28;20044;-69
2023/06/26 07:58:52;;;;;;;5.90;4.72;;;26.50;93.10;;;;;;5026878;28;20042;-68
2023/06/26 08:01:38;;;;;;;6.25;4.50;;;26.50;92.90;;;;;;5027882;28;20482;-68
2023/06/26 08:04:26;;;;;;;8.30;4.63;;;26.60;92.90;;;;;;5026619;28;20069;-68
2023/06/26 08:07:13;;;;;;;7.38;4.63;;;26.70;92.80;;;;;;5027876;28;20041;-64
2023/06/26 08:09:59;;;;;;;4.78;3.83;;;26.80;92.70;;;;;;5022258;28;20029;-68
2023/06/26 08:12:46;;;;;;;6.38;4.07;;;26.90;92.40;;;;;;5010661;28;20030;-69
2023/06/26 08:15:32;;;;;;;6.05;4.47;;;26.90;92.10;;;;;;5010464;28;20482;-70
2023/06/26 08:18:19;;;;;;;6.50;3.72;;;26.90;91.90;;;;;;5028863;28;20034;-69
2023/06/26 08:21:04;;;;;;;5.20;3.83;;;27.00;91.70;;;;;;5028781;28;20160;-69
2023/06/26 08:23:50;;;;;;;5.18;3.90;;;27.10;91.40;;;;;;5029929;28;20033;-69
2023/06/26 08:26:37;;;;;;;6.78;4.03;;;27.10;91.30;;;;;;5024462;28;20541;-69
2023/06/26 08:29:23;;;;;;;4.70;3.33;;;27.20;91.00;;;;;;5025177;28;20026;-68
2023/06/26 08:32:09;;;;;;;5.03;3.75;;;27.20;90.60;;;;;;5023272;28;20559;-68
2023/06/26 08:34:54;;;;;;;5.47;3.95;;;27.30;90.60;;;;;;5029369;28;20031;-68
2023/06/26 08:37:40;;;;;;;5.47;3.42;;;27.40;90.50;;;;;;5019686;28;20034;-68
2023/06/26 08:40:27;;;;;;;4.85;3.30;;;27.50;90.20;;;;;;5031424;28;20512;-68
2023/06/26 08:43:13;;;;;;;6.25;3.80;;;27.50;90.10;;;;;;5031669;28;20044;-68
2023/06/26 08:46:00;;;;;;;3.20;2.50;;;27.60;90.30;;;;;;5021843;28;20441;-67
2023/06/26 08:48:54;;;;;;;5.95;3.88;;;27.70;90.10;;;;;;5029569;28;20450;-68
2023/06/26 08:51:44;;;;;;;4.63;2.90;;;27.70;88.90;;;;;;5029107;28;20454;-68
2023/06/26 08:54:40;;;;;;;4.75;3.08;;;27.80;87.50;;;;;;5021302;28;20042;-68
2023/06/26 08:57:27;;;;;;;4.72;3.55;;;27.80;86.90;;;;;;5030271;28;20034;-68
2023/06/26 09:00:14;;;;;;;4.72;3.67;;;27.90;86.60;;;;;;5028778;28;20065;-67
2023/06/26 09:03:03;;;;;;;4.85;3.38;;;28.00;85.80;;;;;;5018627;28;20041;-67
2023/06/26 09:05:49;;;;;;;6.05;3.13;;;28.10;84.90;;;;;;5030787;28;20457;-67
2023/06/26 09:08:35;;;;;;;6.78;3.65;;;28.10;84.60;;;;;;5029609;28;20150;-67
2023/06/26 09:11:21;;;;;;;6.30;3.25;;;28.20;84.80;;;;;;5023893;28;20048;-67
2023/06/26 09:14:10;;;;;;;4.57;3.40;;;28.30;84.90;;;;;;5022426;28;20022;-67
2023/06/26 09:16:56;;;;;;;5.53;3.10;;;28.40;83.50;;;;;;5028924;28;20045;-67
2023/06/26 09:19:45;;;;;;;4.38;2.92;;;28.40;83.50;;;;;;5029379;28;20025;-67
2023/06/26 09:22:36;;;;;;;5.70;3.33;;;28.40;82.70;;;;;;5028293;28;20046;-67
2023/06/26 09:25:23;;;;;;;7.70;3.45;;;28.50;82.20;;;;;;5025061;28;20030;-67
2023/06/26 09:28:09;;;;;;;4.57;3.40;;;28.60;82.40;;;;;;5029427;28;20720;-67
2023/06/26 09:30:59;;;;;;;4.45;2.80;;;28.60;82.10;;;;;;5030424;28;20033;-67
2023/06/26 09:33:47;;;;;;;5.22;2.72;;;28.70;80.90;;;;;;5028871;28;20551;-67
2023/06/26 09:36:35;;;;;;;3.97;2.53;;;28.70;80.60;;;;;;5030044;28;20037;-67
2023/06/26 09:39:21;;;;;;;4.70;2.80;;;28.70;79.90;;;;;;5030485;28;20041;-68
2023/06/26 09:42:07;;;;;;;6.28;3.47;;;28.90;79.80;;;;;;5030315;28;20128;-69
2023/06/26 09:44:54;;;;;;;4.57;3.10;;;28.90;79.60;;;;;;5025408;28;20036;-69
2023/06/26 09:47:44;;;;;;;5.10;3.28;;;28.90;78.70;;;;;;5020615;28;20044;-68
2023/06/26 09:50:33;;;;;;;4.00;3.20;;;28.90;78.50;;;;;;5028761;28;20130;-69
2023/06/26 09:53:20;;;;;;;7.28;3.88;;;29.00;78.90;;;;;;5026210;28;20034;-68
2023/06/26 09:56:07;;;;;;;6.60;3.88;;;29.10;78.70;;;;;;5025646;28;20037;-68
2023/06/26 09:58:56;;;;;;;4.40;3.15;;;29.10;78.10;;;;;;5028985;28;20064;-68
2023/06/26 10:01:45;;;;;;;5.40;3.45;;;29.10;77.90;;;;;;5029904;28;20061;-68
2023/06/26 10:04:32;;;;;;;7.57;3.70;;;29.20;77.00;;;;;;5025438;28;20437;-68
2023/06/26 10:07:19;;;;;;;4.45;3.33;;;29.30;76.80;;;;;;5023176;28;20053;-69
2023/06/26 10:10:07;;;;;;;3.47;2.80;;;29.30;76.70;;;;;;5029509;28;20047;-69
2023/06/26 10:13:03;;;;;;;5.50;3.50;;;29.30;76.80;;;;;;5027322;28;20475;-68
2023/06/26 10:15:50;;;;;;;4.28;3.15;;;29.40;76.90;;;;;;5029676;28;20045;-68
2023/06/26 10:18:39;;;;;;;5.47;2.65;;;29.50;76.10;;;;;;5017512;28;20042;-69
2023/06/26 10:21:28;;;;;;;5.50;2.95;;;29.50;75.90;;;;;;5024855;28;20036;-68
2023/06/26 10:24:14;;;;;;;4.97;2.97;;;29.50;75.70;;;;;;5024092;28;20037;-68
2023/06/26 10:27:13;;;;;;;4.30;2.92;;;29.60;75.40;;;;;;5020180;28;20056;-68
2023/06/26 10:30:04;;;;;;;5.38;2.95;;;29.60;75.10;;;;;;5022630;28;20057;-68
2023/06/26 10:32:51;;;;;;;4.80;3.28;;;29.70;75.60;;;;;;5022579;28;20065;-69
2023/06/26 10:35:47;;;;;;;5.72;3.40;;;29.80;75.50;;;;;;5024006;28;20156;-68
2023/06/26 10:38:49;;;;;;;5.22;3.13;;;29.80;74.80;;;;;;5017733;28;20072;-67
2023/06/26 10:41:43;;;;;;;6.40;3.97;;;29.90;74.40;;;;;;5021385;28;20065;-68
2023/06/26 10:44:43;;;;;;;4.40;3.30;;;29.90;74.00;;;;;;5026459;28;20045;-68
2023/06/26 10:47:31;;;;;;;8.43;3.25;;;30.00;73.20;;;;;;5026494;28;20046;-68
2023/06/26 10:50:19;;;;;;;5.15;3.45;;;30.00;72.90;;;;;;5010853;28;20045;-68
2023/06/26 10:53:09;;;;;;;5.68;3.55;;;30.00;73.00;;;;;;5026170;28;20106;-68
2023/06/26 10:56:03;;;;;;;4.22;2.88;;;30.00;72.20;;;;;;5025179;28;20037;-67
2023/06/26 10:58:49;;;;;;;5.10;3.10;;;30.10;72.10;;;;;;5022137;28;20152;-67
2023/06/26 11:01:40;;;;;;;6.35;3.45;;;30.10;72.10;;;;;;5013699;28;20120;-68
2023/06/26 11:04:43;;;;;;;4.43;2.55;;;30.20;72.00;;;;;;5015367;28;20036;-68
2023/06/26 11:07:29;;;;;;;4.40;3.22;;;30.20;72.10;;;;;;5024060;28;20060;-68
2023/06/26 11:10:16;;;;;;;5.43;3.45;;;30.30;72.10;;;;;;5016042;28;20049;-67
2023/06/26 11:13:06;;;;;;;5.10;3.20;;;30.30;71.80;;;;;;5020609;28;20474;-67
2023/06/26 11:15:52;;;;;;;6.43;3.22;;;30.40;72.00;;;;;;5025352;28;20132;-67
2023/06/26 11:18:38;;;;;;;4.90;3.00;;;30.40;71.70;;;;;;5018824;28;20041;-67
2023/06/26 11:21:25;;;;;;;6.95;3.40;;;30.50;72.40;;;;;;5023146;28;20037;-67
2023/06/26 11:24:12;;;;;;;6.55;3.70;;;30.50;72.20;;;;;;5011313;28;20033;-67
2023/06/26 11:27:02;;;;;;;4.13;2.90;;;30.60;71.30;;;;;;5024258;28;20156;-68
2023/06/26 11:29:49;;;;;;;4.95;2.88;;;30.60;71.30;;;;;;5023883;28;20398;-68
2023/06/26 11:32:38;;;;;;;4.43;3.03;;;30.70;70.40;;;;;;5027716;28;20057;-68
2023/06/26 11:35:35;;;;;;;4.78;2.90;;;30.70;70.90;;;;;;5015062;28;20033;-68
2023/06/26 11:38:20;;;;;;;4.72;3.20;;;30.80;70.70;;;;;;5019850;28;20029;-68
2023/06/26 11:41:08;;;;;;;5.45;3.75;;;30.80;70.50;;;;;;5024426;28;20057;-68
2023/06/26 11:43:54;;;;;;;4.50;3.33;;;30.90;70.80;;;;;;5020197;28;20041;-68
2023/06/26 11:46:40;;;;;;;5.68;2.92;;;30.90;70.30;;;;;;5009641;28;20129;-68
2023/06/26 11:49:28;;;;;;;4.35;2.80;;;31.00;70.20;;;;;;5013869;28;20037;-68
2023/06/26 11:52:15;;;;;;;4.10;2.88;;;31.00;69.80;;;;;;5025321;28;20049;-68
2023/06/26 11:55:02;;;;;;;4.97;3.38;;;31.10;70.00;;;;;;5014250;28;20398;-68
2023/06/26 11:57:50;;;;;;;4.07;3.17;;;31.10;70.00;;;;;;5022931;28;20106;-68
2023/06/26 12:00:41;;;;;;;4.25;3.08;;;31.10;69.70;;;;;;5027492;28;20395;-68
2023/06/26 12:03:27;;;;;;;5.82;3.10;;;31.20;68.80;;;;;;5015142;28;20091;-68
2023/06/26 12:06:14;;;;;;;6.57;3.65;;;31.20;68.30;;;;;;5015932;28;20589;-68
2023/06/26 12:09:05;;;;;;;4.95;3.38;;;31.30;68.00;;;;;;5026299;28;20501;-68
2023/06/26 12:11:54;;;;;;;4.60;3.30;;;31.40;68.90;;;;;;5030320;28;20417;-68
2023/06/26 12:14:40;;;;;;;5.10;3.20;;;31.40;69.30;;;;;;5029926;28;20043;-68
2023/06/26 12:17:26;;;;;;;4.43;3.00;;;31.50;68.60;;;;;;5031188;28;20382;-68
2023/06/26 12:20:23;;;;;;;3.88;2.83;;;31.50;69.10;;;;;;5029725;28;20065;-68
2023/06/26 12:23:13;;;;;;;5.03;3.78;;;31.50;68.40;;;;;;5021425;28;20041;-68
2023/06/26 12:26:15;;;;;;;4.20;3.17;;;31.60;68.40;;;;;;5019950;28;20144;-68
2023/06/26 12:29:06;;;;;;;3.95;3.20;;;31.60;68.30;;;;;;5019940;28;20096;-69
2023/06/26 12:31:52;;;;;;;4.95;3.50;;;31.80;68.20;;;;;;5021972;28;20056;-68
2023/06/26 12:34:39;;;;;;;4.35;3.30;;;31.80;67.30;;;;;;5030135;28;20029;-68
2023/06/26 12:37:25;;;;;;;4.13;3.13;;;31.90;67.60;;;;;;5018130;28;20411;-68
2023/06/26 12:40:19;;;;;;;5.72;3.95;;;32.00;66.90;;;;;;5031624;28;20095;-68
2023/06/26 12:43:04;;;;;;;5.88;3.40;;;32.10;66.60;;;;;;5014871;28;20099;-68
2023/06/26 12:45:55;;;;;;;5.57;3.47;;;32.10;66.60;;;;;;5027771;28;20530;-69
2023/06/26 12:48:49;;;;;;;5.50;3.63;;;32.20;66.70;;;;;;5029336;28;20120;-68
2023/06/26 12:51:34;;;;;;;6.28;3.47;;;32.30;67.00;;;;;;5026371;28;20049;-68
2023/06/26 12:54:20;;;;;;;4.95;3.80;;;32.40;66.40;;;;;;5027060;28;20037;-68
2023/06/26 12:57:07;;;;;;;5.70;3.63;;;32.40;67.10;;;;;;5013052;28;20181;-68
2023/06/26 12:59:53;;;;;;;5.00;4.07;;;32.30;67.20;;;;;;5017761;28;20030;-68
2023/06/26 13:02:39;;;;;;;7.60;3.53;;;32.30;66.20;;;;;;5017373;28;20041;-66
2023/06/26 13:05:25;;;;;;;5.93;3.92;;;32.40;66.40;;;;;;5025201;28;20088;-65
2023/06/26 13:08:12;;;;;;;4.80;3.47;;;32.40;66.30;;;;;;5021875;28;20037;-66
2023/06/26 13:10:58;;;;;;;5.10;3.40;;;32.40;65.90;;;;;;5013286;28;20048;-68
2023/06/26 13:13:43;;;;;;;6.18;3.60;;;32.40;65.90;;;;;;5012987;28;20040;-68
2023/06/26 13:16:29;;;;;;;4.47;3.55;;;32.40;66.40;;;;;;5018062;28;20381;-68
2023/06/26 13:19:15;;;;;;;5.32;3.90;;;32.40;66.00;;;;;;5017113;28;20040;-68
2023/06/26 13:22:01;;;;;;;4.38;3.40;;;32.40;66.10;;;;;;5018216;28;20034;-68
2023/06/26 13:24:49;;;;;;;4.38;3.40;;;32.40;66.30;;;;;;5021812;28;20036;-68
2023/06/26 13:27:35;;;;;;;4.72;3.67;;;32.30;66.50;;;;;;5011975;28;20095;-68
2023/06/26 13:30:21;;;;;;;5.30;3.97;;;32.20;66.30;;;;;;5024415;28;20091;-68
2023/06/26 13:33:07;;;;;;;6.57;4.20;;;32.10;65.70;;;;;;5022957;28;20041;-68
2023/06/26 13:35:54;;;;;;;4.88;3.72;;;31.90;65.70;;;;;;5020808;28;20119;-66
2023/06/26 13:38:40;;;;;;;4.70;3.60;;;31.80;66.20;;;;;;5020280;28;20037;-66
2023/06/26 13:41:26;;;;;;;7.25;3.70;;;31.80;65.60;;;;;;5021727;28;20045;-66
2023/06/26 13:44:12;;;;;;;7.03;4.25;;;31.70;66.00;;;;;;5023564;28;20124;-66
2023/06/26 13:46:58;;;;;;;5.28;3.88;;;31.60;66.00;;;;;;5021257;28;20042;-66
2023/06/26 13:49:44;;;;;;;6.07;4.63;;;31.50;65.90;;;;;;5012517;28;20034;-66
2023/06/26 13:52:30;;;;;;;6.57;3.65;;;31.40;66.40;;;;;;5017669;28;20098;-66
2023/06/26 13:55:17;;;;;;;5.22;4.00;;;31.40;66.40;;;;;;5020839;28;20628;-66
2023/06/26 13:58:05;;;;;;;5.30;3.83;;;31.40;65.90;;;;;;5013002;28;20410;-66
2023/06/26 14:00:51;;;;;;;6.65;4.38;;;31.50;66.50;;;;;;5023913;28;20032;-68
2023/06/26 14:03:37;;;;;;;5.18;3.83;;;31.50;66.00;;;;;;5013562;28;20096;-67
2023/06/26 14:06:23;;;;;;;5.30;3.60;;;31.50;65.70;;;;;;5015276;28;20099;-66
2023/06/26 14:09:09;;;;;;;6.03;4.10;;;31.40;66.40;;;;;;5017971;28;20033;-66
2023/06/26 14:11:54;;;;;;;6.65;4.07;;;31.30;66.80;;;;;;5019498;28;20092;-66
2023/06/26 14:14:41;;;;;;;4.80;3.58;;;31.20;66.60;;;;;;5022178;28;20029;-66
2023/06/26 14:17:27;;;;;;;4.88;3.90;;;31.10;66.30;;;;;;5011146;28;20029;-66
2023/06/26 14:20:14;;;;;;;6.13;3.80;;;30.90;66.20;;;;;;5020648;28;20394;-66
2023/06/26 14:23:00;;;;;;;7.18;4.72;;;30.90;66.20;;;;;;5023004;28;20069;-73
2023/06/26 14:25:46;;;;;;;10.35;4.63;;;30.70;67.00;;;;;;5015598;28;20053;-68